Time;durP1;ratioP1;P1;durP2;ratioP2;P2;SDS_P1;SDS_P2;PMS_P1;PMS_P2;Temp;Humidity;BMP_temperature;BMP_pressure;BME280_temperature;BME280_humidity;BME280_pressure;Samples;Min_cycle;Max_cycle;Signal;HPM_P1;HPM_P2
2022/10/15 00:00:03;;;;;;;;;;;;;;;16.38;72.21;100397.34;1256114;23;658;-76
2022/10/15 00:00:54;;;;;;;;;;;;;;;16.38;72.02;100391.97;1256076;23;1870;-76
2022/10/15 00:01:44;;;;;;;;;;;;;;;16.39;71.93;100396.34;1256284;23;614;-76
2022/10/15 00:02:35;;;;;;;;;;;;;;;16.40;72.36;100398.03;1256086;23;688;-76
2022/10/15 00:03:25;;;;;;;;;;;;;;;16.40;71.88;100392.66;1256241;23;666;-76
2022/10/15 00:04:15;;;;;;;;;;;;;;;16.38;71.95;100394.66;1253711;23;669;-76
2022/10/15 00:05:06;;;;;;;;;;;;;;;16.37;71.87;100390.25;1255046;23;689;-75
2022/10/15 00:05:56;;;;;;;;;;;;;;;16.35;72.28;100393.09;1255557;23;654;-75
2022/10/15 00:06:47;;;;;;;;;;;;;;;16.36;72.24;100392.09;1256107;23;646;-75
2022/10/15 00:07:37;;;;;;;;;;;;;;;16.36;72.37;100397.47;1253588;23;627;-76
2022/10/15 00:08:27;;;;;;;;;;;;;;;16.36;71.83;100392.09;1253627;23;709;-75
2022/10/15 00:09:18;;;;;;;;;;;;;;;16.36;72.21;100391.25;1255143;23;669;-75
2022/10/15 00:10:08;;;;;;;;;;;;;;;16.38;71.82;100397.34;1256101;23;661;-75
2022/10/15 00:10:59;;;;;;;;;;;;;;;16.37;72.24;100395.66;1256088;23;654;-76
2022/10/15 00:11:49;;;;;;;;;;;;;;;16.38;71.99;100391.97;1256136;23;646;-76
2022/10/15 00:12:40;;;;;;;;;;;;;;;16.34;72.57;100399.47;1256038;23;633;-76
2022/10/15 00:13:31;;;;;;;;;;;;;;;16.35;72.45;100395.78;1256189;23;670;-76
2022/10/15 00:14:22;;;;;;;;;;;;;;;16.32;72.17;100396.94;1255419;23;606;-75
2022/10/15 00:15:12;;;;;;;;;;;;;;;16.35;72.08;100395.78;1256184;23;666;-76
2022/10/15 00:16:03;;;;;;;;;;;;;;;16.36;72.46;100391.25;1253744;23;623;-75
2022/10/15 00:16:53;;;;;;;;;;;;;;;16.34;72.41;100388.72;1256217;23;649;-75
2022/10/15 00:17:44;;;;;;;;;;;;;;;16.33;72.48;100392.41;1256229;23;677;-75
2022/10/15 00:18:34;;;;;;;;;;;;;;;16.35;72.36;100389.56;1256228;23;627;-75
2022/10/15 00:19:24;;;;;;;;;;;;;;;16.35;71.91;100393.09;1256261;23;618;-75
2022/10/15 00:20:15;;;;;;;;;;;;;;;16.35;72.13;100392.25;1255650;23;649;-75
2022/10/15 00:21:05;;;;;;;;;;;;;;;16.35;72.58;100392.25;1256152;23;1943;-75
2022/10/15 00:21:56;;;;;;;;;;;;;;;16.34;72.47;100394.09;1255994;23;661;-74
2022/10/15 00:22:46;;;;;;;;;;;;;;;16.35;72.34;100381.50;1256155;23;654;-74
2022/10/15 00:23:37;;;;;;;;;;;;;;;16.35;72.27;100394.94;1256073;23;673;-76
2022/10/15 00:24:27;;;;;;;;;;;;;;;16.34;71.92;100394.09;1253533;23;650;-76
2022/10/15 00:25:17;;;;;;;;;;;;;;;16.35;71.89;100392.25;1247457;23;776;-76
2022/10/15 00:26:08;;;;;;;;;;;;;;;16.33;72.37;100393.25;1249150;23;623;-76
2022/10/15 00:26:58;;;;;;;;;;;;;;;16.35;72.67;100393.09;1253642;23;635;-76
2022/10/15 00:27:49;;;;;;;;;;;;;;;16.33;72.52;100385.19;1255963;23;681;-77
2022/10/15 00:28:39;;;;;;;;;;;;;;;16.32;72.59;100388.84;1256064;23;630;-76
2022/10/15 00:29:30;;;;;;;;;;;;;;;16.33;72.17;100385.19;1256060;23;650;-76
2022/10/15 00:30:20;;;;;;;;;;;;;;;16.33;71.92;100382.50;1255293;23;778;-76
2022/10/15 00:31:10;;;;;;;;;;;;;;;16.34;71.83;100386.03;1256131;23;606;-77
2022/10/15 00:32:01;;;;;;;;;;;;;;;16.33;71.93;100387.88;1255870;23;658;-76
2022/10/15 00:32:51;;;;;;;;;;;;;;;16.32;71.85;100385.31;1253595;23;642;-76
2022/10/15 00:33:42;;;;;;;;;;;;;;;16.34;72.49;100383.34;1256033;23;681;-75
2022/10/15 00:34:32;;;;;;;;;;;;;;;16.32;72.14;100386.16;1256222;23;673;-76
2022/10/15 00:35:22;;;;;;;;;;;;;;;16.34;72.43;100386.03;1256247;23;658;-75
2022/10/15 00:36:13;;;;;;;;;;;;;;;16.33;72.11;100392.41;1253973;23;639;-75
2022/10/15 00:37:03;;;;;;;;;;;;;;;16.33;72.56;100382.50;1253542;23;623;-75
2022/10/15 00:37:54;;;;;;;;;;;;;;;16.32;72.40;100380.78;1256017;23;634;-76
2022/10/15 00:38:44;;;;;;;;;;;;;;;16.32;72.58;100386.16;1256011;23;646;-76
2022/10/15 00:39:34;;;;;;;;;;;;;;;16.33;72.64;100376.25;1256172;23;670;-76
2022/10/15 00:40:25;;;;;;;;;;;;;;;16.33;72.62;100382.50;1255341;23;732;-75
2022/10/15 00:41:15;;;;;;;;;;;;;;;16.35;72.47;100378.81;1256271;23;1927;-75
2022/10/15 00:42:06;;;;;;;;;;;;;;;16.35;72.13;100378.81;1256033;23;662;-75
2022/10/15 00:42:56;;;;;;;;;;;;;;;16.32;72.14;100370.03;1247367;23;649;-76
2022/10/15 00:43:47;;;;;;;;;;;;;;;16.32;72.78;100377.25;1249008;23;937;-76
2022/10/15 00:44:37;;;;;;;;;;;;;;;16.33;72.36;100377.09;1255053;23;626;-76
2022/10/15 00:45:28;;;;;;;;;;;;;;;16.33;72.35;100379.81;1256153;23;680;-76
2022/10/15 00:46:18;;;;;;;;;;;;;;;16.35;72.14;100384.19;1255300;23;621;-75
2022/10/15 00:47:09;;;;;;;;;;;;;;;16.34;72.28;100386.03;1247626;23;698;-76
2022/10/15 00:47:59;;;;;;;;;;;;;;;16.33;72.78;100374.41;1249336;23;531;-75
2022/10/15 00:48:50;;;;;;;;;;;;;;;16.33;72.65;100374.41;1255598;23;697;-74
2022/10/15 00:49:40;;;;;;;;;;;;;;;16.33;72.58;100377.09;1255779;23;700;-75
2022/10/15 00:50:30;;;;;;;;;;;;;;;16.32;72.36;100379.94;1256338;23;626;-75
2022/10/15 00:51:21;;;;;;;;;;;;;;;16.32;72.87;100378.09;1254294;23;626;-75
2022/10/15 00:52:11;;;;;;;;;;;;;;;16.31;72.41;100379.09;1256497;23;594;-75
2022/10/15 00:53:02;;;;;;;;;;;;;;;16.32;72.93;100371.88;1256513;23;637;-75
2022/10/15 00:53:52;;;;;;;;;;;;;;;16.33;72.70;100371.72;1253778;23;630;-75
2022/10/15 00:54:43;;;;;;;;;;;;;;;16.35;72.79;100376.13;1256418;23;708;-75
2022/10/15 00:55:33;;;;;;;;;;;;;;;16.33;72.29;100373.56;1256587;23;705;-75
2022/10/15 00:56:23;;;;;;;;;;;;;;;16.33;72.69;100377.09;1256552;23;642;-75
2022/10/15 00:57:14;;;;;;;;;;;;;;;16.34;72.40;100372.56;1256440;23;626;-75
2022/10/15 00:58:04;;;;;;;;;;;;;;;16.33;72.79;100371.72;1256456;23;611;-75
2022/10/15 00:58:55;;;;;;;;;;;;;;;16.32;73.00;100378.09;1256388;23;634;-75
2022/10/15 00:59:46;;;;;;;;;;;;;;;16.31;73.15;100376.41;1255717;23;622;-75
2022/10/15 01:00:36;;;;;;;;;;;;;;;16.32;73.26;100375.41;1256536;23;619;-76
2022/10/15 01:01:27;;;;;;;;;;;;;;;16.31;72.94;100379.09;1256474;23;673;-75
2022/10/15 01:02:17;;;;;;;;;;;;;;;16.33;72.59;100378.94;1255551;23;891;-75
2022/10/15 01:03:08;;;;;;;;;;;;;;;16.33;72.83;100377.09;1256377;23;650;-76
2022/10/15 01:03:58;;;;;;;;;;;;;;;16.33;73.19;100377.09;1255894;23;642;-76
2022/10/15 01:04:49;;;;;;;;;;;;;;;16.33;73.40;100370.88;1256305;23;1188;-76
2022/10/15 01:05:39;;;;;;;;;;;;;;;16.32;73.14;100378.09;1256500;23;633;-76
2022/10/15 01:06:29;;;;;;;;;;;;;;;16.33;73.02;100376.25;1256388;23;628;-76
2022/10/15 01:07:20;;;;;;;;;;;;;;;16.32;72.85;100375.41;1256656;23;661;-76
2022/10/15 01:08:10;;;;;;;;;;;;;;;16.31;73.23;100367.50;1256489;23;606;-76
2022/10/15 01:09:01;;;;;;;;;;;;;;;16.31;73.05;100376.41;1254234;23;630;-76
2022/10/15 01:09:51;;;;;;;;;;;;;;;16.31;73.14;100371.03;1255632;23;669;-76
2022/10/15 01:10:42;;;;;;;;;;;;;;;16.32;73.22;100374.56;1255615;23;732;-76
2022/10/15 01:11:32;;;;;;;;;;;;;;;16.32;72.82;100369.19;1256601;23;665;-76
2022/10/15 01:12:23;;;;;;;;;;;;;;;16.31;72.78;100368.34;1256333;23;653;-77
2022/10/15 01:13:13;;;;;;;;;;;;;;;16.32;73.30;100372.72;1256647;23;657;-76
2022/10/15 01:14:04;;;;;;;;;;;;;;;16.32;73.31;100372.72;1256368;23;614;-75
2022/10/15 01:14:54;;;;;;;;;;;;;;;16.32;73.20;100364.66;1256537;23;658;-76
2022/10/15 01:15:44;;;;;;;;;;;;;;;16.32;73.34;100379.94;1247618;23;630;-76
2022/10/15 01:16:35;;;;;;;;;;;;;;;16.30;73.13;100372.03;1249462;23;634;-76
2022/10/15 01:17:25;;;;;;;;;;;;;;;16.31;73.37;100371.03;1255420;23;661;-77
2022/10/15 01:18:16;;;;;;;;;;;;;;;16.30;72.77;100369.34;1255847;23;677;-77
2022/10/15 01:19:06;;;;;;;;;;;;;;;16.30;73.32;100366.66;1256497;23;653;-78
2022/10/15 01:19:57;;;;;;;;;;;;;;;16.31;73.45;100372.88;1256419;23;606;-78
2022/10/15 01:20:47;;;;;;;;;;;;;;;16.32;73.07;100370.03;1256307;23;661;-75
2022/10/15 01:21:38;;;;;;;;;;;;;;;16.31;73.50;100365.66;1256305;23;629;-75
2022/10/15 01:22:28;;;;;;;;;;;;;;;16.32;73.32;100366.50;1255596;23;634;-76
2022/10/15 01:23:19;;;;;;;;;;;;;;;16.30;72.82;100366.66;1256415;23;619;-76
2022/10/15 01:24:09;;;;;;;;;;;;;;;16.30;73.19;100355.88;1255704;23;639;-76
2022/10/15 01:25:00;;;;;;;;;;;;;;;16.31;73.44;100367.50;1254059;23;702;-75
2022/10/15 01:25:50;;;;;;;;;;;;;;;16.30;73.18;100361.25;1256498;23;665;-75
2022/10/15 01:26:40;;;;;;;;;;;;;;;16.31;73.23;100367.50;1256558;23;725;-76
2022/10/15 01:27:31;;;;;;;;;;;;;;;16.27;72.38;100360.75;1256293;23;622;-76
2022/10/15 01:28:21;;;;;;;;;;;;;;;16.26;73.15;100365.28;1256644;23;637;-75
2022/10/15 01:29:12;;;;;;;;;;;;;;;16.28;73.18;100368.66;1256532;23;633;-75
2022/10/15 01:30:02;;;;;;;;;;;;;;;16.27;73.43;100364.28;1256537;23;614;-75
2022/10/15 01:30:53;;;;;;;;;;;;;;;16.28;73.12;100363.28;1256377;23;648;-75
2022/10/15 01:31:43;;;;;;;;;;;;;;;16.28;73.34;100363.28;1256487;23;661;-76
2022/10/15 01:32:34;;;;;;;;;;;;;;;16.29;72.87;100364.13;1256547;23;662;-76
2022/10/15 01:33:24;;;;;;;;;;;;;;;16.30;73.23;100355.06;1254176;23;662;-76
2022/10/15 01:34:14;;;;;;;;;;;;;;;16.30;73.08;100355.88;1256457;23;650;-76
2022/10/15 01:35:05;;;;;;;;;;;;;;;16.28;73.21;100352.53;1254117;23;630;-76
2022/10/15 01:35:55;;;;;;;;;;;;;;;16.29;72.94;100362.28;1256267;23;669;-76
2022/10/15 01:36:46;;;;;;;;;;;;;;;16.29;73.12;100354.22;1256403;23;672;-77
2022/10/15 01:37:36;;;;;;;;;;;;;;;16.28;72.93;100352.53;1255657;23;692;-76
2022/10/15 01:38:26;;;;;;;;;;;;;;;16.31;73.03;100348.66;1256377;23;665;-77
2022/10/15 01:39:17;;;;;;;;;;;;;;;16.31;73.24;100349.53;1256240;23;672;-76
2022/10/15 01:40:07;;;;;;;;;;;;;;;16.28;73.14;100347.16;1256452;23;634;-77
2022/10/15 01:40:58;;;;;;;;;;;;;;;16.29;73.33;100348.84;1253967;23;1934;-77
2022/10/15 01:41:48;;;;;;;;;;;;;;;16.31;72.90;100345.97;1256236;23;673;-77
2022/10/15 01:42:39;;;;;;;;;;;;;;;16.30;73.13;100349.69;1256381;23;696;-77
2022/10/15 01:43:29;;;;;;;;;;;;;;;16.30;73.37;100355.06;1256448;23;739;-76
2022/10/15 01:44:19;;;;;;;;;;;;;;;16.29;72.81;100348.84;1256424;23;701;-77
2022/10/15 01:45:10;;;;;;;;;;;;;;;16.27;73.05;100342.78;1254338;23;651;-77
2022/10/15 01:46:00;;;;;;;;;;;;;;;16.28;72.96;100349.00;1256416;23;665;-77
2022/10/15 01:46:51;;;;;;;;;;;;;;;16.27;73.35;100344.59;1256478;23;618;-77
2022/10/15 01:47:41;;;;;;;;;;;;;;;16.27;73.35;100345.47;1256550;23;610;-77
2022/10/15 01:48:32;;;;;;;;;;;;;;;16.28;73.38;100347.16;1256326;23;617;-77
2022/10/15 01:49:24;;;;;;;;;;;;;;;16.28;72.76;100344.47;1256533;23;631;-76
2022/10/15 01:50:15;;;;;;;;;;;;;;;16.27;72.79;100333.84;1255455;23;642;-77
2022/10/15 01:51:05;;;;;;;;;;;;;;;16.27;73.62;100340.09;1256426;23;651;-77
2022/10/15 01:51:56;;;;;;;;;;;;;;;16.26;73.34;100343.75;1256453;23;640;-76
2022/10/15 01:52:46;;;;;;;;;;;;;;;16.27;73.06;100339.22;1256393;23;629;-76
2022/10/15 01:53:37;;;;;;;;;;;;;;;16.26;72.67;100334.84;1256492;23;665;-77
2022/10/15 01:54:27;;;;;;;;;;;;;;;16.28;72.82;100332.84;1256393;23;653;-77
2022/10/15 01:55:17;;;;;;;;;;;;;;;16.25;73.55;100331.31;1256293;23;681;-77
2022/10/15 01:56:08;;;;;;;;;;;;;;;16.26;73.04;100326.78;1256425;23;669;-76
2022/10/15 01:56:58;;;;;;;;;;;;;;;16.25;73.31;100330.47;1256429;23;658;-75
2022/10/15 01:57:49;;;;;;;;;;;;;;;16.26;73.24;100326.78;1256426;23;622;-75
2022/10/15 01:58:39;;;;;;;;;;;;;;;16.26;72.99;100324.94;1256352;23;661;-75
2022/10/15 01:59:30;;;;;;;;;;;;;;;16.27;72.87;100321.25;1255553;23;622;-76
2022/10/15 02:00:20;;;;;;;;;;;;;;;16.25;73.10;100323.25;1256608;23;782;-76
2022/10/15 02:01:11;;;;;;;;;;;;;;;16.25;73.15;100320.56;1256099;23;1912;-76
2022/10/15 02:02:01;;;;;;;;;;;;;;;16.26;73.26;100326.78;1253197;23;615;-76
2022/10/15 02:02:51;;;;;;;;;;;;;;;16.24;73.44;100318.88;1256357;23;646;-76
2022/10/15 02:03:42;;;;;;;;;;;;;;;16.25;72.93;100319.72;1256352;23;642;-76
2022/10/15 02:04:32;;;;;;;;;;;;;;;16.25;73.32;100322.41;1256244;23;1118;-76
2022/10/15 02:05:23;;;;;;;;;;;;;;;16.26;73.18;100321.41;1256329;23;657;-76
2022/10/15 02:06:13;;;;;;;;;;;;;;;16.23;73.06;100311.78;1256535;23;665;-76
2022/10/15 02:07:04;;;;;;;;;;;;;;;16.24;72.83;100315.31;1256325;23;661;-76
2022/10/15 02:07:54;;;;;;;;;;;;;;;16.23;73.74;100313.63;1255593;23;677;-76
2022/10/15 02:08:44;;;;;;;;;;;;;;;16.24;73.24;100320.69;1256299;23;646;-76
2022/10/15 02:09:35;;;;;;;;;;;;;;;16.26;73.27;100316.88;1256338;23;647;-75
2022/10/15 02:10:25;;;;;;;;;;;;;;;16.27;73.63;100317.72;1256325;23;630;-76
2022/10/15 02:11:16;;;;;;;;;;;;;;;16.25;72.89;100317.03;1256311;23;621;-76
2022/10/15 02:12:06;;;;;;;;;;;;;;;16.22;73.33;100312.78;1253760;23;626;-75
2022/10/15 02:12:56;;;;;;;;;;;;;;;16.23;73.02;100301.03;1256303;23;645;-76
2022/10/15 02:13:47;;;;;;;;;;;;;;;16.24;73.45;100302.72;1256272;23;606;-76
2022/10/15 02:14:37;;;;;;;;;;;;;;;16.25;73.52;100304.44;1256411;23;656;-76
2022/10/15 02:15:28;;;;;;;;;;;;;;;16.26;73.67;100303.44;1254024;23;666;-76
2022/10/15 02:16:18;;;;;;;;;;;;;;;16.27;73.02;100305.13;1255852;23;651;-76
2022/10/15 02:17:09;;;;;;;;;;;;;;;16.26;73.17;100300.75;1256280;23;649;-75
2022/10/15 02:17:59;;;;;;;;;;;;;;;16.28;72.75;100306.81;1256336;23;743;-75
2022/10/15 02:18:50;;;;;;;;;;;;;;;16.26;73.28;100300.75;1253849;23;673;-76
2022/10/15 02:19:40;;;;;;;;;;;;;;;16.27;72.83;100301.59;1256184;23;626;-77
2022/10/15 02:20:30;;;;;;;;;;;;;;;16.27;73.17;100301.59;1256478;23;651;-76
2022/10/15 02:21:21;;;;;;;;;;;;;;;16.26;73.25;100300.75;1256233;23;1870;-76
2022/10/15 02:22:11;;;;;;;;;;;;;;;16.23;73.32;100298.34;1256447;23;657;-76
2022/10/15 02:23:02;;;;;;;;;;;;;;;16.24;73.60;100297.34;1256302;23;607;-76
2022/10/15 02:23:52;;;;;;;;;;;;;;;16.25;73.36;100299.03;1255683;23;690;-75
2022/10/15 02:24:43;;;;;;;;;;;;;;;16.25;73.46;100292.81;1256406;23;626;-76
2022/10/15 02:25:34;;;;;;;;;;;;;;;16.23;72.97;100295.66;1256252;23;629;-75
2022/10/15 02:26:25;;;;;;;;;;;;;;;16.26;73.11;100299.91;1255405;23;713;-75
2022/10/15 02:27:15;;;;;;;;;;;;;;;16.25;73.30;100301.75;1255507;23;618;-75
2022/10/15 02:28:06;;;;;;;;;;;;;;;16.25;73.75;100293.66;1256294;23;607;-76
2022/10/15 02:28:56;;;;;;;;;;;;;;;16.22;73.92;100296.66;1256272;23;615;-75
2022/10/15 02:29:46;;;;;;;;;;;;;;;16.20;73.65;100295.94;1256352;23;661;-75
2022/10/15 02:30:37;;;;;;;;;;;;;;;16.23;73.39;100301.03;1255864;23;666;-76
2022/10/15 02:31:27;;;;;;;;;;;;;;;16.24;73.00;100297.34;1256252;23;642;-75
2022/10/15 02:32:18;;;;;;;;;;;;;;;16.21;73.28;100294.97;1256334;23;674;-75
2022/10/15 02:33:08;;;;;;;;;;;;;;;16.22;73.13;100287.75;1256555;23;654;-75
2022/10/15 02:33:59;;;;;;;;;;;;;;;16.23;73.57;100289.44;1256241;23;650;-75
2022/10/15 02:34:49;;;;;;;;;;;;;;;16.25;73.62;100287.44;1255463;23;666;-75
2022/10/15 02:35:39;;;;;;;;;;;;;;;16.24;73.34;100291.97;1256221;23;616;-75
2022/10/15 02:36:30;;;;;;;;;;;;;;;16.26;73.16;100289.13;1256319;23;677;-75
2022/10/15 02:37:20;;;;;;;;;;;;;;;16.25;72.97;100293.66;1256304;23;610;-75
2022/10/15 02:38:11;;;;;;;;;;;;;;;16.18;73.44;100284.50;1256272;23;653;-75
2022/10/15 02:39:01;;;;;;;;;;;;;;;16.21;73.80;100286.03;1256307;23;627;-76
2022/10/15 02:39:52;;;;;;;;;;;;;;;16.21;73.73;100288.72;1256296;23;614;-75
2022/10/15 02:40:42;;;;;;;;;;;;;;;16.21;73.77;100296.78;1253528;23;643;-76
2022/10/15 02:41:33;;;;;;;;;;;;;;;16.13;73.08;100285.94;1256293;23;650;-76
2022/10/15 02:42:23;;;;;;;;;;;;;;;16.15;73.28;100282.09;1256086;23;642;-76
2022/10/15 02:43:13;;;;;;;;;;;;;;;16.19;73.36;100291.56;1256071;23;804;-76
2022/10/15 02:44:04;;;;;;;;;;;;;;;16.22;73.65;100291.28;1256257;23;650;-76
2022/10/15 02:44:54;;;;;;;;;;;;;;;16.22;73.15;100288.59;1256254;23;603;-76
2022/10/15 02:45:45;;;;;;;;;;;;;;;16.22;73.61;100285.06;1256351;23;673;-76
2022/10/15 02:46:35;;;;;;;;;;;;;;;16.22;73.59;100291.28;1255468;23;699;-76
2022/10/15 02:47:25;;;;;;;;;;;;;;;16.22;73.87;100293.97;1256350;23;622;-77
2022/10/15 02:48:16;;;;;;;;;;;;;;;16.23;73.52;100289.44;1256403;23;617;-76
2022/10/15 02:49:06;;;;;;;;;;;;;;;16.22;73.88;100285.91;1256290;23;637;-77
2022/10/15 02:49:57;;;;;;;;;;;;;;;16.23;73.74;100295.66;1256155;23;626;-77
2022/10/15 02:50:47;;;;;;;;;;;;;;;16.24;74.00;100297.34;1256482;23;665;-77
2022/10/15 02:51:38;;;;;;;;;;;;;;;16.19;73.47;100288.88;1256261;23;665;-77
2022/10/15 02:52:28;;;;;;;;;;;;;;;16.19;74.22;100288.88;1255385;23;673;-76
2022/10/15 02:53:18;;;;;;;;;;;;;;;16.21;73.54;100289.56;1256348;23;622;-76
2022/10/15 02:54:09;;;;;;;;;;;;;;;16.22;73.73;100285.91;1247695;23;650;-76
2022/10/15 02:54:59;;;;;;;;;;;;;;;16.19;73.76;100286.19;1248803;23;638;-76
2022/10/15 02:55:50;;;;;;;;;;;;;;;16.20;73.87;100285.19;1255297;23;685;-76
2022/10/15 02:56:40;;;;;;;;;;;;;;;16.22;73.85;100285.06;1255481;23;693;-76
2022/10/15 02:57:31;;;;;;;;;;;;;;;16.22;73.83;100282.34;1247510;23;634;-77
2022/10/15 02:58:21;;;;;;;;;;;;;;;16.24;73.15;100281.22;1247892;23;614;-76
2022/10/15 02:59:11;;;;;;;;;;;;;;;16.26;73.33;100267.63;1255378;23;654;-76
2022/10/15 03:00:02;;;;;;;;;;;;;;;16.25;73.60;100282.91;1255656;23;661;-76
2022/10/15 03:00:52;;;;;;;;;;;;;;;16.23;73.34;100276.84;1256393;23;654;-77
2022/10/15 03:01:43;;;;;;;;;;;;;;;16.24;73.83;100275.00;1256311;23;590;-77
2022/10/15 03:02:33;;;;;;;;;;;;;;;16.25;73.40;100272.16;1256215;23;626;-77
2022/10/15 03:03:24;;;;;;;;;;;;;;;16.24;73.41;100269.63;1256352;23;626;-76
2022/10/15 03:04:14;;;;;;;;;;;;;;;16.24;73.25;100270.47;1256320;23;684;-76
2022/10/15 03:05:04;;;;;;;;;;;;;;;16.22;73.36;100275.16;1244543;23;682;-76
2022/10/15 03:05:55;;;;;;;;;;;;;;;16.22;73.77;100272.47;1243522;23;670;-76
2022/10/15 03:06:45;;;;;;;;;;;;;;;16.23;73.70;100267.94;1243689;23;615;-77
2022/10/15 03:07:36;;;;;;;;;;;;;;;16.22;73.49;100267.06;1244860;23;829;-77
2022/10/15 03:08:26;;;;;;;;;;;;;;;16.22;73.54;100259.00;1243234;23;709;-77
2022/10/15 03:09:17;;;;;;;;;;;;;;;16.23;73.06;100257.16;1243656;23;805;-77
2022/10/15 03:10:07;;;;;;;;;;;;;;;16.24;73.61;100264.25;1243427;23;638;-77
2022/10/15 03:10:58;;;;;;;;;;;;;;;16.22;73.56;100255.47;1243615;23;642;-74
2022/10/15 03:11:48;;;;;;;;;;;;;;;16.23;73.63;100262.53;1243580;23;627;-76
2022/10/15 03:12:38;;;;;;;;;;;;;;;16.23;73.74;100263.41;1243592;23;637;-76
2022/10/15 03:13:29;;;;;;;;;;;;;;;16.22;73.22;100264.38;1243658;23;665;-76
2022/10/15 03:14:19;;;;;;;;;;;;;;;16.24;73.23;100261.56;1242970;23;650;-76
2022/10/15 03:15:10;;;;;;;;;;;;;;;16.24;73.01;100259.72;1243600;23;635;-76
2022/10/15 03:16:00;;;;;;;;;;;;;;;16.23;73.34;100255.31;1243695;23;631;-75
2022/10/15 03:16:50;;;;;;;;;;;;;;;16.24;73.60;100258.88;1243594;23;651;-76
2022/10/15 03:17:41;;;;;;;;;;;;;;;16.23;73.52;100259.84;1244388;23;682;-75
2022/10/15 03:18:31;;;;;;;;;;;;;;;16.22;73.28;100250.94;1243596;23;647;-75
2022/10/15 03:19:22;;;;;;;;;;;;;;;16.23;73.81;100260.72;1243665;23;681;-76
2022/10/15 03:20:12;;;;;;;;;;;;;;;16.22;73.87;100248.25;1243662;23;615;-76
2022/10/15 03:21:03;;;;;;;;;;;;;;;16.23;73.81;100259.84;1243597;23;1906;-75
2022/10/15 03:21:53;;;;;;;;;;;;;;;16.22;73.46;100256.31;1243590;23;650;-75
2022/10/15 03:22:43;;;;;;;;;;;;;;;16.24;73.98;100251.66;1243506;23;662;-75
2022/10/15 03:23:34;;;;;;;;;;;;;;;16.23;73.49;100252.63;1243719;23;654;-75
2022/10/15 03:24:24;;;;;;;;;;;;;;;16.23;73.85;100258.03;1244542;23;645;-76
2022/10/15 03:25:15;;;;;;;;;;;;;;;16.24;73.40;100251.66;1243661;23;686;-76
2022/10/15 03:26:05;;;;;;;;;;;;;;;16.22;74.06;100260.84;1243712;23;685;-76
2022/10/15 03:26:56;;;;;;;;;;;;;;;16.23;73.88;100258.03;1243409;23;622;-76
2022/10/15 03:27:46;;;;;;;;;;;;;;;16.23;73.99;100252.63;1244421;23;705;-75
2022/10/15 03:28:36;;;;;;;;;;;;;;;16.21;73.38;100249.25;1243540;23;619;-76
2022/10/15 03:29:27;;;;;;;;;;;;;;;16.21;73.49;100249.25;1243688;23;649;-76
2022/10/15 03:30:17;;;;;;;;;;;;;;;16.22;73.97;100255.47;1243570;23;669;-76
2022/10/15 03:31:08;;;;;;;;;;;;;;;16.20;73.64;100252.94;1244328;23;602;-76
2022/10/15 03:31:58;;;;;;;;;;;;;;;16.20;74.14;100255.63;1244657;23;692;-76
2022/10/15 03:32:48;;;;;;;;;;;;;;;16.19;73.95;100256.63;1243143;23;638;-76
2022/10/15 03:33:39;;;;;;;;;;;;;;;16.20;73.97;100252.09;1243602;23;652;-76
2022/10/15 03:34:29;;;;;;;;;;;;;;;16.20;73.91;100250.25;1243644;23;666;-76
2022/10/15 03:35:20;;;;;;;;;;;;;;;16.19;73.67;100256.63;1244314;23;618;-76
2022/10/15 03:36:10;;;;;;;;;;;;;;;16.20;73.99;100252.94;1243670;23;665;-76
2022/10/15 03:37:01;;;;;;;;;;;;;;;16.19;73.59;100251.25;1243504;23;624;-77
2022/10/15 03:37:51;;;;;;;;;;;;;;;16.19;74.03;100251.25;1243764;23;674;-76
2022/10/15 03:38:41;;;;;;;;;;;;;;;16.19;74.11;100243.19;1244518;23;607;-77
2022/10/15 03:39:32;;;;;;;;;;;;;;;16.20;74.14;100246.72;1243634;23;635;-77
2022/10/15 03:40:22;;;;;;;;;;;;;;;16.20;73.63;100242.19;1245034;23;618;-76
2022/10/15 03:41:13;;;;;;;;;;;;;;;16.20;73.88;100244.88;1243082;23;1918;-76
2022/10/15 03:42:03;;;;;;;;;;;;;;;16.19;73.93;100250.41;1243599;23;659;-77
2022/10/15 03:42:55;;;;;;;;;;;;;;;16.20;73.51;100244.88;1243490;23;654;-76
2022/10/15 03:43:45;;;;;;;;;;;;;;;16.19;73.59;100239.63;1243693;23;661;-76
2022/10/15 03:44:36;;;;;;;;;;;;;;;16.18;73.55;100243.31;1243393;23;682;-76
2022/10/15 03:45:26;;;;;;;;;;;;;;;16.18;73.79;100244.16;1244277;23;653;-76
2022/10/15 03:46:17;;;;;;;;;;;;;;;16.13;73.85;100238.38;1243523;23;622;-76
2022/10/15 03:47:07;;;;;;;;;;;;;;;16.15;73.84;100244.47;1243691;23;663;-76
2022/10/15 03:47:57;;;;;;;;;;;;;;;16.16;73.83;100239.94;1244282;23;637;-75
2022/10/15 03:48:48;;;;;;;;;;;;;;;16.16;73.47;100240.78;1243548;23;732;-75
2022/10/15 03:49:38;;;;;;;;;;;;;;;16.16;73.59;100240.78;1244574;23;658;-75
2022/10/15 03:50:29;;;;;;;;;;;;;;;16.16;73.19;100245.31;1243611;23;606;-75
2022/10/15 03:51:19;;;;;;;;;;;;;;;16.14;73.49;100248.16;1243615;23;770;-76
2022/10/15 03:52:10;;;;;;;;;;;;;;;16.15;73.43;100247.16;1243546;23;634;-75
2022/10/15 03:53:00;;;;;;;;;;;;;;;16.15;73.80;100249.00;1243546;23;655;-75
2022/10/15 03:53:50;;;;;;;;;;;;;;;16.15;73.75;100244.47;1243567;23;670;-76
2022/10/15 03:54:41;;;;;;;;;;;;;;;16.16;73.89;100243.47;1243548;23;686;-76
2022/10/15 03:55:31;;;;;;;;;;;;;;;16.19;73.52;100245.00;1243562;23;623;-76
2022/10/15 03:56:22;;;;;;;;;;;;;;;16.17;73.42;100236.25;1243558;23;635;-75
2022/10/15 03:57:12;;;;;;;;;;;;;;;16.18;73.86;100238.78;1243548;23;646;-75
2022/10/15 03:58:03;;;;;;;;;;;;;;;16.15;74.00;100239.09;1243136;23;606;-76
2022/10/15 03:58:53;;;;;;;;;;;;;;;16.14;73.81;100245.47;1243612;23;662;-76
2022/10/15 03:59:44;;;;;;;;;;;;;;;16.15;73.47;100243.63;1243417;23;631;-75
2022/10/15 04:00:34;;;;;;;;;;;;;;;16.15;73.34;100246.31;1243479;23;654;-76
2022/10/15 04:01:24;;;;;;;;;;;;;;;16.14;74.09;100240.09;1244879;23;1901;-76
2022/10/15 04:02:15;;;;;;;;;;;;;;;16.17;74.21;100252.38;1243265;23;705;-76
2022/10/15 04:03:05;;;;;;;;;;;;;;;16.15;73.93;100244.47;1243518;23;643;-75
2022/10/15 04:03:56;;;;;;;;;;;;;;;16.15;74.09;100243.63;1243576;23;643;-75
2022/10/15 04:04:46;;;;;;;;;;;;;;;16.16;73.52;100239.94;1254495;23;1225;-77
2022/10/15 04:05:37;;;;;;;;;;;;;;;16.18;73.80;100243.31;1256088;23;612;-76
2022/10/15 04:06:27;;;;;;;;;;;;;;;16.17;74.03;100237.09;1255343;23;658;-76
2022/10/15 04:07:18;;;;;;;;;;;;;;;16.17;73.68;100247.84;1256085;23;661;-75
2022/10/15 04:08:08;;;;;;;;;;;;;;;16.18;73.62;100249.53;1256078;23;606;-76
2022/10/15 04:08:59;;;;;;;;;;;;;;;16.18;73.91;100249.53;1256037;23;627;-75
2022/10/15 04:09:49;;;;;;;;;;;;;;;16.17;74.04;100250.53;1256092;23;689;-75
2022/10/15 04:10:39;;;;;;;;;;;;;;;16.15;73.77;100247.16;1256113;23;614;-76
2022/10/15 04:11:30;;;;;;;;;;;;;;;16.17;74.06;100250.53;1256296;23;590;-76
2022/10/15 04:12:20;;;;;;;;;;;;;;;16.18;73.45;100260.31;1255442;23;642;-76
2022/10/15 04:13:11;;;;;;;;;;;;;;;16.19;73.54;100262.00;1256329;23;615;-76
2022/10/15 04:14:01;;;;;;;;;;;;;;;16.18;73.76;100259.44;1256228;23;614;-76
2022/10/15 04:14:51;;;;;;;;;;;;;;;16.20;73.38;100263.69;1256306;23;618;-76
2022/10/15 04:15:42;;;;;;;;;;;;;;;16.19;73.53;100262.00;1255995;23;681;-76
2022/10/15 04:16:32;;;;;;;;;;;;;;;16.19;73.66;100261.16;1256257;23;614;-76
2022/10/15 04:17:23;;;;;;;;;;;;;;;16.18;73.26;100264.84;1247422;23;674;-76
2022/10/15 04:18:14;;;;;;;;;;;;;;;16.19;73.13;100267.38;1249240;23;662;-76
2022/10/15 04:19:04;;;;;;;;;;;;;;;16.16;73.77;100264.97;1255179;23;662;-76
2022/10/15 04:19:55;;;;;;;;;;;;;;;16.17;73.19;100261.28;1256139;23;611;-76
2022/10/15 04:20:45;;;;;;;;;;;;;;;16.20;73.58;100263.69;1256072;23;677;-76
2022/10/15 04:21:35;;;;;;;;;;;;;;;16.19;73.16;100262.00;1256866;23;665;-75
2022/10/15 04:22:26;;;;;;;;;;;;;;;16.20;73.05;100262.84;1256746;23;638;-75
2022/10/15 04:23:16;;;;;;;;;;;;;;;16.18;73.64;100257.63;1256661;23;670;-76
2022/10/15 04:24:07;;;;;;;;;;;;;;;16.18;73.55;100265.69;1247918;23;641;-76
2022/10/15 04:24:57;;;;;;;;;;;;;;;16.17;73.56;100266.66;1249662;23;638;-76
2022/10/15 04:25:48;;;;;;;;;;;;;;;16.16;73.65;100269.50;1255888;23;607;-74